sensor_id;sensor_type;location;lat;lon;timestamp;pressure;altitude;pressure_sealevel;temperature;humidity
58467;BME280;44255;49.244;7.726;2022-07-23T03:30:39;98329.91;;;19.93;60.75
58467;BME280;44255;49.244;7.726;2022-07-23T03:33:04;98330.78;;;19.84;60.63
58467;BME280;44255;49.244;7.726;2022-07-23T03:35:29;98333.97;;;19.60;62.03
58467;BME280;44255;49.244;7.726;2022-07-23T03:37:55;98332.56;;;19.55;62.30
58467;BME280;44255;49.244;7.726;2022-07-23T03:40:20;98322.53;;;19.66;62.34
58467;BME280;44255;49.244;7.726;2022-07-23T03:42:46;98322.78;;;19.82;61.21
58467;BME280;44255;49.244;7.726;2022-07-23T03:45:11;98319.59;;;19.20;63.18
58467;BME280;44255;49.244;7.726;2022-07-23T03:47:36;98326.25;;;19.55;61.81
58467;BME280;44255;49.244;7.726;2022-07-23T03:50:02;98320.50;;;19.68;61.83
58467;BME280;44255;49.244;7.726;2022-07-23T03:52:28;98319.34;;;19.70;61.16
58467;BME280;44255;49.244;7.726;2022-07-23T03:54:53;98330.78;;;19.74;61.13
58467;BME280;44255;49.244;7.726;2022-07-23T03:57:18;98316.59;;;19.80;60.75
58467;BME280;44255;49.244;7.726;2022-07-23T03:59:44;98340.78;;;19.74;60.50
58467;BME280;44255;49.244;7.726;2022-07-23T04:02:09;98342.09;;;19.79;61.11
58467;BME280;44255;49.244;7.726;2022-07-23T04:04:34;98346.25;;;19.64;62.25
58467;BME280;44255;49.244;7.726;2022-07-23T04:06:59;98344.28;;;19.76;62.64
58467;BME280;44255;49.244;7.726;2022-07-23T04:09:26;98351.97;;;19.80;62.53
58467;BME280;44255;49.244;7.726;2022-07-23T04:11:51;98361.59;;;19.65;63.37
58467;BME280;44255;49.244;7.726;2022-07-23T04:14:16;98378.09;;;19.53;63.97
58467;BME280;44255;49.244;7.726;2022-07-23T04:16:42;98398.81;;;19.64;63.76
58467;BME280;44255;49.244;7.726;2022-07-23T04:19:07;98400.44;;;19.57;64.27
58467;BME280;44255;49.244;7.726;2022-07-23T04:21:33;98393.53;;;19.53;64.72
58467;BME280;44255;49.244;7.726;2022-07-23T04:23:58;98391.56;;;19.06;66.72
58467;BME280;44255;49.244;7.726;2022-07-23T04:26:23;98383.84;;;19.40;66.50
58467;BME280;44255;49.244;7.726;2022-07-23T04:28:48;98387.97;;;19.54;66.36
58467;BME280;44255;49.244;7.726;2022-07-23T04:31:14;98388.97;;;19.53;65.68
58467;BME280;44255;49.244;7.726;2022-07-23T04:33:39;98386.81;;;19.67;65.29
58467;BME280;44255;49.244;7.726;2022-07-23T04:36:05;98385.09;;;19.76;64.61
58467;BME280;44255;49.244;7.726;2022-07-23T04:38:30;98383.94;;;19.78;64.83
58467;BME280;44255;49.244;7.726;2022-07-23T04:40:55;98377.78;;;19.66;65.33
58467;BME280;44255;49.244;7.726;2022-07-23T04:43:21;98375.19;;;19.75;65.03
58467;BME280;44255;49.244;7.726;2022-07-23T04:45:46;98378.66;;;19.77;64.58
58467;BME280;44255;49.244;7.726;2022-07-23T04:48:12;98376.63;;;19.69;64.25
58467;BME280;44255;49.244;7.726;2022-07-23T04:50:37;98391.09;;;19.60;65.29
58467;BME280;44255;49.244;7.726;2022-07-23T04:53:02;98391.84;;;19.42;66.05
58467;BME280;44255;49.244;7.726;2022-07-23T04:55:28;98405.00;;;19.56;66.02
58467;BME280;44255;49.244;7.726;2022-07-23T04:57:53;98412.88;;;19.40;66.56
58467;BME280;44255;49.244;7.726;2022-07-23T05:00:18;98415.31;;;19.04;67.81
58467;BME280;44255;49.244;7.726;2022-07-23T05:02:43;98418.44;;;19.28;67.17
58467;BME280;44255;49.244;7.726;2022-07-23T05:05:09;98414.47;;;19.33;66.29
58467;BME280;44255;49.244;7.726;2022-07-23T05:07:34;98411.16;;;19.09;67.33
58467;BME280;44255;49.244;7.726;2022-07-23T05:09:59;98412.88;;;19.30;67.27
58467;BME280;44255;49.244;7.726;2022-07-23T05:12:25;98408.56;;;19.37;66.59
58467;BME280;44255;49.244;7.726;2022-07-23T05:14:50;98397.44;;;19.40;66.35
58467;BME280;44255;49.244;7.726;2022-07-23T05:17:16;98396.72;;;19.48;66.37
58467;BME280;44255;49.244;7.726;2022-07-23T05:19:41;98390.97;;;19.51;65.99
58467;BME280;44255;49.244;7.726;2022-07-23T05:22:07;98393.69;;;19.51;66.25
58467;BME280;44255;49.244;7.726;2022-07-23T05:24:32;98406.00;;;19.55;66.50
58467;BME280;44255;49.244;7.726;2022-07-23T05:26:57;98398.84;;;19.45;67.15
58467;BME280;44255;49.244;7.726;2022-07-23T05:29:22;98399.56;;;19.47;66.87
58467;BME280;44255;49.244;7.726;2022-07-23T05:31:48;98397.56;;;19.39;68.08
58467;BME280;44255;49.244;7.726;2022-07-23T05:34:13;98408.03;;;19.34;67.89
58467;BME280;44255;49.244;7.726;2022-07-23T05:36:38;98426.06;;;19.35;67.72
58467;BME280;44255;49.244;7.726;2022-07-23T05:39:04;98439.31;;;18.98;70.15
58467;BME280;44255;49.244;7.726;2022-07-23T05:41:29;98448.16;;;19.00;69.02
58467;BME280;44255;49.244;7.726;2022-07-23T05:43:54;98466.94;;;18.63;71.43
58467;BME280;44255;49.244;7.726;2022-07-23T05:46:20;98467.72;;;18.84;70.73
58467;BME280;44255;49.244;7.726;2022-07-23T05:48:45;98479.53;;;18.73;70.69
58467;BME280;44255;49.244;7.726;2022-07-23T05:51:21;98475.00;;;18.84;70.68
58467;BME280;44255;49.244;7.726;2022-07-23T05:53:47;98472.41;;;19.23;69.38
58467;BME280;44255;49.244;7.726;2022-07-23T05:56:13;98465.69;;;19.47;67.67
58467;BME280;44255;49.244;7.726;2022-07-23T05:58:38;98455.25;;;19.52;67.74
58467;BME280;44255;49.244;7.726;2022-07-23T06:01:04;98438.75;;;19.64;67.25
58467;BME280;44255;49.244;7.726;2022-07-23T06:03:29;98454.81;;;19.67;67.14
58467;BME280;44255;49.244;7.726;2022-07-23T06:05:55;98456.38;;;19.69;66.40
58467;BME280;44255;49.244;7.726;2022-07-23T06:08:20;98464.41;;;19.71;66.65
58467;BME280;44255;49.244;7.726;2022-07-23T06:10:45;98460.81;;;19.80;66.39
58467;BME280;44255;49.244;7.726;2022-07-23T06:13:10;98452.13;;;19.77;66.20
58467;BME280;44255;49.244;7.726;2022-07-23T06:15:36;98448.81;;;19.83;66.80
58467;BME280;44255;49.244;7.726;2022-07-23T06:18:01;98438.22;;;19.80;66.23
58467;BME280;44255;49.244;7.726;2022-07-23T06:20:26;98429.03;;;19.91;66.41
58467;BME280;44255;49.244;7.726;2022-07-23T06:22:52;98433.47;;;19.92;66.48
58467;BME280;44255;49.244;7.726;2022-07-23T06:25:17;98447.50;;;19.87;67.57
58467;BME280;44255;49.244;7.726;2022-07-23T06:27:42;98440.47;;;19.65;67.90
58467;BME280;44255;49.244;7.726;2022-07-23T06:30:08;98451.38;;;19.45;68.77
58467;BME280;44255;49.244;7.726;2022-07-23T06:32:35;98448.06;;;19.71;67.91
58467;BME280;44255;49.244;7.726;2022-07-23T06:35:00;98457.53;;;19.47;69.21
58467;BME280;44255;49.244;7.726;2022-07-23T06:37:26;98458.25;;;19.89;67.86
58467;BME280;44255;49.244;7.726;2022-07-23T06:39:51;98459.66;;;20.03;66.70
58467;BME280;44255;49.244;7.726;2022-07-23T06:42:16;98474.53;;;20.08;66.89
58467;BME280;44255;49.244;7.726;2022-07-23T06:44:41;98462.78;;;20.08;66.76
58467;BME280;44255;49.244;7.726;2022-07-23T06:47:07;98474.53;;;20.08;66.24
58467;BME280;44255;49.244;7.726;2022-07-23T06:49:32;98469.84;;;19.81;66.81
58467;BME280;44255;49.244;7.726;2022-07-23T06:51:58;98473.44;;;19.91;67.62
58467;BME280;44255;49.244;7.726;2022-07-23T06:54:23;98464.53;;;19.89;67.95
58467;BME280;44255;49.244;7.726;2022-07-23T06:56:48;98466.78;;;20.13;67.77
58467;BME280;44255;49.244;7.726;2022-07-23T06:59:14;98470.44;;;20.32;65.94
58467;BME280;44255;49.244;7.726;2022-07-23T07:01:39;98472.16;;;20.33;66.12
58467;BME280;44255;49.244;7.726;2022-07-23T07:04:04;98473.38;;;20.21;66.81
58467;BME280;44255;49.244;7.726;2022-07-23T07:06:30;98479.28;;;20.06;66.30
58467;BME280;44255;49.244;7.726;2022-07-23T07:08:55;98485.44;;;20.08;67.11
58467;BME280;44255;49.244;7.726;2022-07-23T07:11:21;98484.81;;;20.24;67.32
58467;BME280;44255;49.244;7.726;2022-07-23T07:13:46;98489.53;;;20.22;67.82
58467;BME280;44255;49.244;7.726;2022-07-23T07:16:11;98500.44;;;20.12;67.75
58467;BME280;44255;49.244;7.726;2022-07-23T07:18:37;98500.28;;;20.24;68.27
58467;BME280;44255;49.244;7.726;2022-07-23T07:21:02;98504.47;;;20.08;67.58
58467;BME280;44255;49.244;7.726;2022-07-23T07:23:27;98494.59;;;20.07;67.00
58467;BME280;44255;49.244;7.726;2022-07-23T07:25:53;98498.94;;;20.00;68.35
58467;BME280;44255;49.244;7.726;2022-07-23T07:28:18;98501.19;;;19.95;67.13
58467;BME280;44255;49.244;7.726;2022-07-23T07:30:43;98508.06;;;19.89;66.79
58467;BME280;44255;49.244;7.726;2022-07-23T07:33:09;98499.91;;;19.79;67.31
58467;BME280;44255;49.244;7.726;2022-07-23T07:35:34;98506.63;;;20.05;66.82
58467;BME280;44255;49.244;7.726;2022-07-23T07:37:59;98516.25;;;19.79;68.08
58467;BME280;44255;49.244;7.726;2022-07-23T07:40:26;98502.34;;;20.02;67.27
58467;BME280;44255;49.244;7.726;2022-07-23T07:42:52;98512.69;;;19.79;67.20
58467;BME280;44255;49.244;7.726;2022-07-23T07:45:21;98513.63;;;20.17;66.98
58467;BME280;44255;49.244;7.726;2022-07-23T07:47:48;98514.38;;;19.99;66.81
58467;BME280;44255;49.244;7.726;2022-07-23T07:50:13;98521.81;;;20.17;66.22
58467;BME280;44255;49.244;7.726;2022-07-23T07:52:38;98521.59;;;20.58;65.44
58467;BME280;44255;49.244;7.726;2022-07-23T07:55:06;98518.59;;;20.41;65.61
58467;BME280;44255;49.244;7.726;2022-07-23T07:57:31;98516.72;;;20.62;64.12
58467;BME280;44255;49.244;7.726;2022-07-23T07:59:57;98516.41;;;20.65;62.50
58467;BME280;44255;49.244;7.726;2022-07-23T08:02:22;98523.31;;;20.59;63.04
58467;BME280;44255;49.244;7.726;2022-07-23T08:04:47;98529.34;;;20.43;64.32
58467;BME280;44255;49.244;7.726;2022-07-23T08:07:13;98519.97;;;20.65;62.03
58467;BME280;44255;49.244;7.726;2022-07-23T08:09:39;98521.44;;;20.60;62.77
58467;BME280;44255;49.244;7.726;2022-07-23T08:12:04;98521.66;;;21.04;61.20
58467;BME280;44255;49.244;7.726;2022-07-23T08:14:29;98524.94;;;21.36;60.21
58467;BME280;44255;49.244;7.726;2022-07-23T08:16:55;98530.94;;;21.21;59.44
58467;BME280;44255;49.244;7.726;2022-07-23T08:19:20;98526.16;;;20.95;61.14
58467;BME280;44255;49.244;7.726;2022-07-23T08:21:45;98525.06;;;20.88;60.26
58467;BME280;44255;49.244;7.726;2022-07-23T08:24:10;98517.59;;;20.90;58.33
58467;BME280;44255;49.244;7.726;2022-07-23T08:26:36;98516.00;;;21.16;56.31
58467;BME280;44255;49.244;7.726;2022-07-23T08:29:01;98522.94;;;21.38;57.59
58467;BME280;44255;49.244;7.726;2022-07-23T08:31:26;98524.16;;;21.25;58.90
58467;BME280;44255;49.244;7.726;2022-07-23T08:33:52;98526.38;;;21.40;58.39
58467;BME280;44255;49.244;7.726;2022-07-23T08:36:17;98519.44;;;21.64;58.51
58467;BME280;44255;49.244;7.726;2022-07-23T08:38:42;98528.94;;;21.60;59.24
58467;BME280;44255;49.244;7.726;2022-07-23T08:41:09;98533.53;;;21.41;58.52
58467;BME280;44255;49.244;7.726;2022-07-23T08:43:34;98537.59;;;21.37;57.60
58467;BME280;44255;49.244;7.726;2022-07-23T08:46:01;98534.31;;;21.51;58.07
58467;BME280;44255;49.244;7.726;2022-07-23T08:48:29;98530.50;;;21.80;57.26
58467;BME280;44255;49.244;7.726;2022-07-23T08:50:56;98530.13;;;21.93;56.25
58467;BME280;44255;49.244;7.726;2022-07-23T08:53:23;98528.75;;;22.34;55.91
58467;BME280;44255;49.244;7.726;2022-07-23T08:55:52;98534.19;;;22.07;56.48
58467;BME280;44255;49.244;7.726;2022-07-23T08:58:18;98524.28;;;22.06;55.77
58467;BME280;44255;49.244;7.726;2022-07-23T09:00:44;98529.22;;;22.29;55.36
58467;BME280;44255;49.244;7.726;2022-07-23T09:03:16;98529.59;;;22.34;53.65
58467;BME280;44255;49.244;7.726;2022-07-23T09:05:41;98525.56;;;22.65;53.98
58467;BME280;44255;49.244;7.726;2022-07-23T09:08:15;98530.81;;;22.14;53.98
58467;BME280;44255;49.244;7.726;2022-07-23T09:10:56;98537.66;;;22.62;51.47
58467;BME280;44255;49.244;7.726;2022-07-23T09:13:25;98527.72;;;22.88;51.53
58467;BME280;44255;49.244;7.726;2022-07-23T09:15:52;98533.19;;;22.88;50.99
58467;BME280;44255;49.244;7.726;2022-07-23T09:18:17;98523.91;;;22.80;51.18
58467;BME280;44255;49.244;7.726;2022-07-23T09:20:43;98520.06;;;23.34;51.19
58467;BME280;44255;49.244;7.726;2022-07-23T09:23:09;98518.91;;;23.62;50.59
58467;BME280;44255;49.244;7.726;2022-07-23T09:25:34;98527.44;;;23.50;49.17
58467;BME280;44255;49.244;7.726;2022-07-23T09:28:00;98529.66;;;23.55;49.94
58467;BME280;44255;49.244;7.726;2022-07-23T09:30:30;98522.84;;;23.76;48.75
58467;BME280;44255;49.244;7.726;2022-07-23T09:33:13;98519.28;;;23.84;48.87
58467;BME280;44255;49.244;7.726;2022-07-23T09:35:50;98522.31;;;23.72;49.47
58467;BME280;44255;49.244;7.726;2022-07-23T09:38:16;98521.63;;;23.02;49.27
58467;BME280;44255;49.244;7.726;2022-07-23T09:40:43;98526.22;;;23.36;49.57
58467;BME280;44255;49.244;7.726;2022-07-23T09:43:08;98523.16;;;23.05;48.83
58467;BME280;44255;49.244;7.726;2022-07-23T09:45:33;98518.13;;;23.18;48.21
58467;BME280;44255;49.244;7.726;2022-07-23T09:50:38;98519.47;;;23.22;49.15
58467;BME280;44255;49.244;7.726;2022-07-23T09:53:03;98528.66;;;23.13;49.94
58467;BME280;44255;49.244;7.726;2022-07-23T09:55:33;98521.44;;;23.38;50.13
58467;BME280;44255;49.244;7.726;2022-07-23T09:58:02;98528.38;;;23.16;50.24
58467;BME280;44255;49.244;7.726;2022-07-23T10:00:29;98528.81;;;23.71;49.12
58467;BME280;44255;49.244;7.726;2022-07-23T10:02:56;98522.69;;;23.77;48.13
58467;BME280;44255;49.244;7.726;2022-07-23T10:05:22;98515.81;;;23.73;48.08
58467;BME280;44255;49.244;7.726;2022-07-23T10:07:50;98522.81;;;23.51;48.93
58467;BME280;44255;49.244;7.726;2022-07-23T10:10:17;98522.50;;;23.54;48.90
58467;BME280;44255;49.244;7.726;2022-07-23T10:12:46;98516.31;;;23.60;49.21
58467;BME280;44255;49.244;7.726;2022-07-23T10:15:30;98511.91;;;24.01;48.02
58467;BME280;44255;49.244;7.726;2022-07-23T10:17:55;98516.00;;;24.38;47.50
58467;BME280;44255;49.244;7.726;2022-07-23T10:20:20;98518.97;;;24.12;48.20
58467;BME280;44255;49.244;7.726;2022-07-23T10:23:01;98524.06;;;24.23;46.91
58467;BME280;44255;49.244;7.726;2022-07-23T10:28:42;98519.81;;;24.12;46.93
58467;BME280;44255;49.244;7.726;2022-07-23T10:31:31;98520.28;;;24.24;44.66
58467;BME280;44255;49.244;7.726;2022-07-23T10:36:44;98519.28;;;24.33;44.65
58467;BME280;44255;49.244;7.726;2022-07-23T10:39:20;98536.31;;;23.52;47.26
58467;BME280;44255;49.244;7.726;2022-07-23T10:41:47;98526.47;;;24.34;45.01
58467;BME280;44255;49.244;7.726;2022-07-23T10:49:39;98532.47;;;24.13;45.31
58467;BME280;44255;49.244;7.726;2022-07-23T10:54:44;98521.97;;;24.58;43.43
58467;BME280;44255;49.244;7.726;2022-07-23T10:57:12;98524.44;;;24.45;43.61
58467;BME280;44255;49.244;7.726;2022-07-23T11:02:31;98524.06;;;24.48;42.55
58467;BME280;44255;49.244;7.726;2022-07-23T11:05:00;98527.50;;;24.98;42.28
58467;BME280;44255;49.244;7.726;2022-07-23T11:07:26;98515.56;;;24.91;42.88
58467;BME280;44255;49.244;7.726;2022-07-23T11:09:51;98517.06;;;25.33;43.32
58467;BME280;44255;49.244;7.726;2022-07-23T11:15:12;98517.94;;;25.34;41.67
58467;BME280;44255;49.244;7.726;2022-07-23T11:20:20;98518.75;;;25.43;41.85
58467;BME280;44255;49.244;7.726;2022-07-23T11:22:47;98519.91;;;25.48;41.53
58467;BME280;44255;49.244;7.726;2022-07-23T11:25:28;98527.03;;;25.66;41.04
58467;BME280;44255;49.244;7.726;2022-07-23T11:27:55;98523.06;;;25.37;40.85
58467;BME280;44255;49.244;7.726;2022-07-23T11:35:31;98511.63;;;26.03;39.26
58467;BME280;44255;49.244;7.726;2022-07-23T11:38:06;98510.81;;;26.56;37.63
58467;BME280;44255;49.244;7.726;2022-07-23T11:40:32;98504.81;;;26.38;39.03
58467;BME280;44255;49.244;7.726;2022-07-23T11:43:01;98503.78;;;26.99;38.37
58467;BME280;44255;49.244;7.726;2022-07-23T11:45:36;98506.50;;;28.38;35.74
58467;BME280;44255;49.244;7.726;2022-07-23T11:48:04;98496.69;;;28.00;35.67
58467;BME280;44255;49.244;7.726;2022-07-23T11:50:30;98496.53;;;28.30;35.83
58467;BME280;44255;49.244;7.726;2022-07-23T11:52:55;98495.63;;;29.35;34.21
58467;BME280;44255;49.244;7.726;2022-07-23T11:55:21;98488.47;;;28.64;35.19
58467;BME280;44255;49.244;7.726;2022-07-23T11:57:46;98492.19;;;28.20;35.26
58467;BME280;44255;49.244;7.726;2022-07-23T12:00:17;98484.81;;;27.77;36.53
58467;BME280;44255;49.244;7.726;2022-07-23T12:02:46;98485.31;;;27.44;36.90
58467;BME280;44255;49.244;7.726;2022-07-23T12:05:25;98492.56;;;27.15;37.08
58467;BME280;44255;49.244;7.726;2022-07-23T12:07:53;98492.88;;;27.05;38.16
58467;BME280;44255;49.244;7.726;2022-07-23T12:10:29;98483.59;;;26.91;37.42
58467;BME280;44255;49.244;7.726;2022-07-23T12:12:59;98481.53;;;27.30;36.13
58467;BME280;44255;49.244;7.726;2022-07-23T12:15:33;98478.88;;;27.81;35.38
58467;BME280;44255;49.244;7.726;2022-07-23T12:18:00;98471.84;;;28.50;34.67
58467;BME280;44255;49.244;7.726;2022-07-23T12:20:39;98475.31;;;27.87;35.59
58467;BME280;44255;49.244;7.726;2022-07-23T12:23:06;98486.41;;;28.72;34.64
58467;BME280;44255;49.244;7.726;2022-07-23T12:25:37;98485.97;;;28.12;35.14
58467;BME280;44255;49.244;7.726;2022-07-23T12:33:15;98468.31;;;30.01;32.76
58467;BME280;44255;49.244;7.726;2022-07-23T12:35:41;98471.75;;;29.96;32.61
58467;BME280;44255;49.244;7.726;2022-07-23T12:38:10;98476.16;;;29.64;31.06
58467;BME280;44255;49.244;7.726;2022-07-23T12:43:06;98482.97;;;28.99;31.93
58467;BME280;44255;49.244;7.726;2022-07-23T12:48:16;98488.13;;;30.18;32.59
58467;BME280;44255;49.244;7.726;2022-07-23T12:50:43;98460.03;;;30.41;31.19
58467;BME280;44255;49.244;7.726;2022-07-23T12:53:16;98474.91;;;29.73;32.23
58467;BME280;44255;49.244;7.726;2022-07-23T12:55:43;98473.94;;;29.32;33.25
58467;BME280;44255;49.244;7.726;2022-07-23T12:58:14;98468.53;;;28.61;33.93
58467;BME280;44255;49.244;7.726;2022-07-23T13:01:02;98471.94;;;28.35;35.67
58467;BME280;44255;49.244;7.726;2022-07-23T13:03:29;98472.53;;;28.30;35.89
58467;BME280;44255;49.244;7.726;2022-07-23T13:05:55;98467.88;;;28.31;36.38
58467;BME280;44255;49.244;7.726;2022-07-23T13:08:21;98479.28;;;27.99;36.35
58467;BME280;44255;49.244;7.726;2022-07-23T13:10:47;98477.34;;;27.71;35.79
58467;BME280;44255;49.244;7.726;2022-07-23T13:13:14;98487.47;;;27.12;36.70
58467;BME280;44255;49.244;7.726;2022-07-23T13:15:40;98479.81;;;27.44;36.43
58467;BME280;44255;49.244;7.726;2022-07-23T13:18:05;98489.97;;;27.44;36.78
58467;BME280;44255;49.244;7.726;2022-07-23T13:20:31;98493.19;;;27.69;36.27
58467;BME280;44255;49.244;7.726;2022-07-23T13:22:57;98489.69;;;28.26;37.01
58467;BME280;44255;49.244;7.726;2022-07-23T13:25:23;98494.72;;;28.15;36.47
58467;BME280;44255;49.244;7.726;2022-07-23T13:27:48;98489.84;;;27.52;36.95
58467;BME280;44255;49.244;7.726;2022-07-23T13:30:13;98489.44;;;27.33;36.47
58467;BME280;44255;49.244;7.726;2022-07-23T13:32:40;98491.03;;;27.28;36.95
58467;BME280;44255;49.244;7.726;2022-07-23T13:35:05;98493.19;;;27.47;37.09
58467;BME280;44255;49.244;7.726;2022-07-23T13:37:31;98504.16;;;26.65;36.92
58467;BME280;44255;49.244;7.726;2022-07-23T13:39:56;98493.56;;;27.44;36.81
58467;BME280;44255;49.244;7.726;2022-07-23T13:42:21;98484.44;;;27.44;36.27
58467;BME280;44255;49.244;7.726;2022-07-23T13:44:46;98481.81;;;27.94;35.33
58467;BME280;44255;49.244;7.726;2022-07-23T13:47:12;98481.41;;;28.54;33.95
58467;BME280;44255;49.244;7.726;2022-07-23T13:49:37;98479.59;;;28.68;33.99
58467;BME280;44255;49.244;7.726;2022-07-23T13:52:03;98480.47;;;27.68;35.16
58467;BME280;44255;49.244;7.726;2022-07-23T13:54:29;98483.56;;;27.80;35.61
58467;BME280;44255;49.244;7.726;2022-07-23T13:56:54;98490.69;;;27.53;35.55
58467;BME280;44255;49.244;7.726;2022-07-23T13:59:19;98492.78;;;27.51;35.93
58467;BME280;44255;49.244;7.726;2022-07-23T14:01:45;98495.63;;;26.60;36.69
58467;BME280;44255;49.244;7.726;2022-07-23T14:04:10;98499.16;;;26.99;36.92
58467;BME280;44255;49.244;7.726;2022-07-23T14:06:36;98498.50;;;26.82;37.91
58467;BME280;44255;49.244;7.726;2022-07-23T14:09:01;98490.25;;;27.71;36.53
58467;BME280;44255;49.244;7.726;2022-07-23T14:11:27;98492.13;;;28.42;36.08
58467;BME280;44255;49.244;7.726;2022-07-23T14:13:53;98489.63;;;28.19;35.32
58467;BME280;44255;49.244;7.726;2022-07-23T14:16:18;98486.00;;;28.75;34.98
58467;BME280;44255;49.244;7.726;2022-07-23T14:18:43;98476.31;;;28.51;33.73
58467;BME280;44255;49.244;7.726;2022-07-23T14:21:08;98475.81;;;28.41;34.61
58467;BME280;44255;49.244;7.726;2022-07-23T14:23:34;98483.03;;;28.77;34.77
58467;BME280;44255;49.244;7.726;2022-07-23T14:25:59;98483.44;;;29.09;34.92
58467;BME280;44255;49.244;7.726;2022-07-23T14:28:24;98475.31;;;29.01;33.21
58467;BME280;44255;49.244;7.726;2022-07-23T14:30:49;98483.91;;;28.84;32.87
58467;BME280;44255;49.244;7.726;2022-07-23T14:33:15;98491.28;;;27.70;33.11
58467;BME280;44255;49.244;7.726;2022-07-23T14:35:41;98478.88;;;28.02;32.56
58467;BME280;44255;49.244;7.726;2022-07-23T14:38:07;98484.41;;;27.59;33.42
58467;BME280;44255;49.244;7.726;2022-07-23T14:40:32;98480.09;;;27.71;34.28
58467;BME280;44255;49.244;7.726;2022-07-23T14:42:58;98478.56;;;27.47;33.76
58467;BME280;44255;49.244;7.726;2022-07-23T14:45:23;98485.06;;;27.83;33.66
58467;BME280;44255;49.244;7.726;2022-07-23T14:47:48;98478.50;;;28.05;34.58
58467;BME280;44255;49.244;7.726;2022-07-23T14:50:14;98479.72;;;28.53;33.03
58467;BME280;44255;49.244;7.726;2022-07-23T14:52:39;98476.06;;;28.46;32.65
58467;BME280;44255;49.244;7.726;2022-07-23T14:55:05;98474.94;;;28.12;32.19
58467;BME280;44255;49.244;7.726;2022-07-23T14:57:30;98470.28;;;28.41;32.21
58467;BME280;44255;49.244;7.726;2022-07-23T14:59:56;98469.44;;;28.75;31.81
58467;BME280;44255;49.244;7.726;2022-07-23T15:02:22;98460.03;;;28.98;31.79
58467;BME280;44255;49.244;7.726;2022-07-23T15:04:47;98457.50;;;28.33;32.70
58467;BME280;44255;49.244;7.726;2022-07-23T15:07:12;98464.03;;;28.25;31.90
58467;BME280;44255;49.244;7.726;2022-07-23T15:09:37;98467.53;;;28.41;30.75
58467;BME280;44255;49.244;7.726;2022-07-23T15:12:03;98475.13;;;28.67;30.27
58467;BME280;44255;49.244;7.726;2022-07-23T15:14:29;98476.00;;;27.45;32.11
58467;BME280;44255;49.244;7.726;2022-07-23T15:16:54;98472.03;;;27.91;31.61
58467;BME280;44255;49.244;7.726;2022-07-23T15:19:19;98475.34;;;28.37;31.51
58467;BME280;44255;49.244;7.726;2022-07-23T15:21:45;98478.22;;;28.22;31.95
58467;BME280;44255;49.244;7.726;2022-07-23T15:24:10;98475.81;;;28.41;31.85
58467;BME280;44255;49.244;7.726;2022-07-23T15:26:35;98474.47;;;28.37;32.05
58467;BME280;44255;49.244;7.726;2022-07-23T15:29:01;98480.34;;;28.55;31.24
58467;BME280;44255;49.244;7.726;2022-07-23T15:31:28;98477.06;;;28.10;31.24
58467;BME280;44255;49.244;7.726;2022-07-23T15:33:53;98472.56;;;27.87;31.72
58467;BME280;44255;49.244;7.726;2022-07-23T15:36:19;98473.91;;;28.13;32.28
58467;BME280;44255;49.244;7.726;2022-07-23T15:38:45;98469.53;;;28.25;32.26
58467;BME280;44255;49.244;7.726;2022-07-23T15:41:10;98473.59;;;28.01;31.98
58467;BME280;44255;49.244;7.726;2022-07-23T15:43:36;98472.25;;;28.18;32.56
58467;BME280;44255;49.244;7.726;2022-07-23T15:46:01;98471.47;;;27.59;32.57
58467;BME280;44255;49.244;7.726;2022-07-23T15:48:26;98477.25;;;27.28;32.19
58467;BME280;44255;49.244;7.726;2022-07-23T15:50:52;98468.06;;;27.35;31.79
58467;BME280;44255;49.244;7.726;2022-07-23T15:53:17;98467.56;;;27.69;31.44
58467;BME280;44255;49.244;7.726;2022-07-23T15:55:44;98463.34;;;27.95;30.97
58467;BME280;44255;49.244;7.726;2022-07-23T15:58:10;98461.56;;;28.09;30.59
58467;BME280;44255;49.244;7.726;2022-07-23T16:00:35;98463.56;;;28.50;30.88
58467;BME280;44255;49.244;7.726;2022-07-23T16:03:00;98449.78;;;28.50;30.27
58467;BME280;44255;49.244;7.726;2022-07-23T16:05:26;98454.19;;;28.16;30.30
58467;BME280;44255;49.244;7.726;2022-07-23T16:07:59;98455.09;;;28.23;30.65
58467;BME280;44255;49.244;7.726;2022-07-23T16:10:24;98455.41;;;28.07;30.02
58467;BME280;44255;49.244;7.726;2022-07-23T16:12:49;98454.28;;;28.29;30.44
58467;BME280;44255;49.244;7.726;2022-07-23T16:15:15;98451.19;;;28.11;30.22
58467;BME280;44255;49.244;7.726;2022-07-23T16:17:41;98449.31;;;28.18;31.12
58467;BME280;44255;49.244;7.726;2022-07-23T16:20:06;98447.03;;;28.22;30.24
58467;BME280;44255;49.244;7.726;2022-07-23T16:22:32;98445.16;;;28.00;30.04
58467;BME280;44255;49.244;7.726;2022-07-23T16:24:57;98451.69;;;27.92;30.37
58467;BME280;44255;49.244;7.726;2022-07-23T16:27:23;98442.16;;;27.95;29.74
58467;BME280;44255;49.244;7.726;2022-07-23T16:29:48;98446.31;;;28.13;29.81
58467;BME280;44255;49.244;7.726;2022-07-23T16:32:13;98467.38;;;27.92;30.39
58467;BME280;44255;49.244;7.726;2022-07-23T16:34:39;98455.00;;;27.66;29.80
58467;BME280;44255;49.244;7.726;2022-07-23T16:37:04;98460.88;;;27.19;30.50
58467;BME280;44255;49.244;7.726;2022-07-23T16:39:30;98468.13;;;27.42;30.36
58467;BME280;44255;49.244;7.726;2022-07-23T16:41:56;98461.09;;;27.03;31.32
58467;BME280;44255;49.244;7.726;2022-07-23T16:44:21;98461.63;;;27.72;30.42
58467;BME280;44255;49.244;7.726;2022-07-23T16:46:46;98458.69;;;27.73;30.45
58467;BME280;44255;49.244;7.726;2022-07-23T16:49:12;98457.41;;;27.91;30.51
58467;BME280;44255;49.244;7.726;2022-07-23T16:51:37;98464.06;;;28.03;30.63
58467;BME280;44255;49.244;7.726;2022-07-23T16:54:02;98461.47;;;27.95;29.98
58467;BME280;44255;49.244;7.726;2022-07-23T16:56:28;98465.63;;;28.13;30.14
58467;BME280;44255;49.244;7.726;2022-07-23T16:58:53;98461.47;;;27.95;29.68
58467;BME280;44255;49.244;7.726;2022-07-23T17:01:19;98464.63;;;27.92;30.09
58467;BME280;44255;49.244;7.726;2022-07-23T17:03:44;98467.09;;;27.43;30.44
58467;BME280;44255;49.244;7.726;2022-07-23T17:06:10;98463.28;;;27.66;29.80